Time;durP1;ratioP1;P1;durP2;ratioP2;P2;SDS_P1;SDS_P2;PMS_P1;PMS_P2;Temp;Humidity;BMP_temperature;BMP_pressure;BME280_temperature;BME280_humidity;BME280_pressure;Samples;Min_cycle;Max_cycle;Signal;HPM_P1;HPM_P2
2023/08/02 00:00:33;;;;;;;5.60;3.92;;;18.00;99.90;;;;;;5020063;28;20213;-75
2023/08/02 00:02:59;;;;;;;7.53;3.13;;;18.00;99.90;;;;;;5034747;28;20203;-75
2023/08/02 00:05:24;;;;;;;6.60;4.22;;;18.00;99.90;;;;;;5017884;28;20212;-75
2023/08/02 00:07:50;;;;;;;7.68;4.95;;;18.00;99.90;;;;;;5016856;28;20690;-75
2023/08/02 00:10:16;;;;;;;8.27;5.03;;;18.00;99.90;;;;;;5021886;28;20176;-75
2023/08/02 00:12:41;;;;;;;10.68;5.80;;;17.90;99.90;;;;;;5019439;28;20300;-75
2023/08/02 00:15:07;;;;;;;5.32;3.55;;;17.90;99.90;;;;;;5017857;28;20291;-73
2023/08/02 00:17:33;;;;;;;5.30;3.58;;;17.90;99.90;;;;;;5019614;28;20239;-75
2023/08/02 00:19:59;;;;;;;5.90;4.40;;;17.90;99.90;;;;;;5024316;28;20232;-74
2023/08/02 00:22:24;;;;;;;8.15;3.97;;;17.90;99.90;;;;;;5016575;28;20177;-74
2023/08/02 00:24:50;;;;;;;4.32;2.55;;;17.90;99.90;;;;;;5022684;28;20205;-78
2023/08/02 00:27:15;;;;;;;4.20;3.30;;;17.90;99.90;;;;;;5039329;28;20211;-75
2023/08/02 00:29:41;;;;;;;5.70;2.95;;;17.90;99.90;;;;;;5030590;28;20674;-75
2023/08/02 00:32:07;;;;;;;3.78;2.70;;;17.80;99.90;;;;;;5019075;28;20238;-74
2023/08/02 00:34:32;;;;;;;5.15;2.75;;;17.80;99.90;;;;;;5017745;28;20262;-77
2023/08/02 00:36:58;;;;;;;5.53;2.75;;;17.80;99.90;;;;;;5018270;28;20201;-76
2023/08/02 00:39:24;;;;;;;4.32;2.63;;;17.70;99.90;;;;;;5021498;28;20569;-75
2023/08/02 00:41:49;;;;;;;6.05;2.55;;;17.80;99.90;;;;;;5016098;28;20223;-75
2023/08/02 00:44:15;;;;;;;3.95;2.65;;;17.70;99.90;;;;;;5038221;28;20281;-76
2023/08/02 00:46:41;;;;;;;5.25;2.55;;;17.60;99.90;;;;;;5016212;28;20653;-74
2023/08/02 00:49:09;;;;;;;5.68;2.67;;;17.60;99.90;;;;;;5016829;28;20667;-73
2023/08/02 00:51:35;;;;;;;5.13;3.05;;;17.70;99.90;;;;;;5016781;28;20367;-75
2023/08/02 00:54:02;;;;;;;3.75;2.38;;;17.70;99.90;;;;;;5016758;28;20740;-75
2023/08/02 00:56:32;;;;;;;7.57;2.47;;;17.70;99.90;;;;;;5019727;28;20215;-75
2023/08/02 00:58:58;;;;;;;5.47;2.42;;;17.60;99.90;;;;;;5031040;28;20228;-77
2023/08/02 01:01:25;;;;;;;3.33;2.22;;;17.70;99.90;;;;;;5020140;28;20203;-76
2023/08/02 01:03:52;;;;;;;5.50;2.08;;;17.60;99.90;;;;;;5028442;28;20648;-73
2023/08/02 01:06:44;;;;;;;6.28;2.25;;;17.60;99.90;;;;;;5019744;28;20212;-75
2023/08/02 01:09:41;;;;;;;4.60;1.98;;;17.70;99.90;;;;;;5016247;28;20569;-75
2023/08/02 01:12:11;;;;;;;2.63;2.03;;;17.70;99.90;;;;;;5024801;28;20228;-74
2023/08/02 01:14:40;;;;;;;4.82;1.88;;;17.70;99.90;;;;;;5023377;28;20208;-75
2023/08/02 01:17:07;;;;;;;3.50;1.73;;;17.80;99.90;;;;;;5022384;28;20987;-74
2023/08/02 01:19:33;;;;;;;4.15;2.00;;;17.70;99.90;;;;;;5019658;28;20185;-75
2023/08/02 01:21:59;;;;;;;3.17;1.52;;;17.70;99.90;;;;;;5021532;28;20368;-75
2023/08/02 01:24:31;;;;;;;7.80;2.50;;;17.70;99.90;;;;;;5021182;28;20950;-75
2023/08/02 01:26:57;;;;;;;5.53;2.33;;;17.70;99.90;;;;;;5031689;28;20208;-75
2023/08/02 01:29:26;;;;;;;3.05;1.90;;;17.70;99.90;;;;;;5021927;28;20219;-75
2023/08/02 01:31:55;;;;;;;7.15;2.15;;;17.60;99.90;;;;;;5023477;28;20177;-76
2023/08/02 01:34:21;;;;;;;3.25;1.80;;;17.60;99.90;;;;;;5019645;28;20209;-75
2023/08/02 01:36:47;;;;;;;5.75;2.03;;;17.70;99.90;;;;;;5042982;28;20215;-75
2023/08/02 01:39:14;;;;;;;6.45;2.33;;;17.70;99.90;;;;;;5022204;28;20206;-74
2023/08/02 01:41:40;;;;;;;5.97;1.95;;;17.70;99.90;;;;;;5021731;28;20200;-74
2023/08/02 01:44:06;;;;;;;3.10;1.67;;;17.70;99.90;;;;;;5024756;28;20208;-73
2023/08/02 01:46:31;;;;;;;4.82;2.00;;;17.70;99.90;;;;;;5022421;28;20187;-74
2023/08/02 01:48:57;;;;;;;3.25;1.80;;;17.70;99.90;;;;;;5018598;28;20215;-75
2023/08/02 01:51:23;;;;;;;3.60;1.85;;;17.80;99.90;;;;;;5017784;28;20546;-74
2023/08/02 01:53:49;;;;;;;5.03;2.08;;;17.70;99.90;;;;;;5021794;28;20201;-75
2023/08/02 01:56:15;;;;;;;3.72;1.90;;;17.70;99.90;;;;;;5021566;28;20282;-75
2023/08/02 01:58:41;;;;;;;2.35;1.80;;;17.80;99.90;;;;;;5018854;28;20215;-76
2023/08/02 02:01:06;;;;;;;5.18;2.20;;;17.70;99.90;;;;;;5017631;28;20164;-73
2023/08/02 02:03:32;;;;;;;4.05;2.15;;;17.70;99.90;;;;;;5044870;28;20225;-75
2023/08/02 02:05:58;;;;;;;9.55;2.22;;;17.70;99.90;;;;;;5029211;28;20231;-74
2023/08/02 02:08:23;;;;;;;3.35;1.75;;;17.70;99.90;;;;;;5027207;28;20205;-76
2023/08/02 02:10:53;;;;;;;4.45;2.22;;;17.70;99.90;;;;;;5017133;28;20176;-75
2023/08/02 02:13:21;;;;;;;2.95;1.67;;;17.70;99.90;;;;;;5022831;28;20169;-75
2023/08/02 02:15:46;;;;;;;5.32;2.10;;;17.80;99.90;;;;;;5019745;28;20258;-72
2023/08/02 02:18:12;;;;;;;3.97;2.10;;;17.80;99.90;;;;;;5041420;28;20212;-75
2023/08/02 02:20:38;;;;;;;3.63;2.15;;;17.70;99.90;;;;;;5024379;28;20217;-75
2023/08/02 02:23:03;;;;;;;3.85;1.92;;;17.70;99.90;;;;;;5031599;28;20258;-75
2023/08/02 02:25:29;;;;;;;4.85;1.80;;;17.70;99.90;;;;;;5025729;28;20714;-75
2023/08/02 02:27:55;;;;;;;5.53;2.15;;;17.70;99.90;;;;;;5019759;28;20243;-75
2023/08/02 02:30:21;;;;;;;2.88;2.00;;;17.70;99.90;;;;;;5021479;28;20658;-75
2023/08/02 02:32:47;;;;;;;4.75;2.03;;;17.70;99.90;;;;;;5017737;28;20208;-75
2023/08/02 02:35:13;;;;;;;2.97;1.98;;;17.70;99.90;;;;;;5021436;28;20247;-77
2023/08/02 02:37:42;;;;;;;3.20;2.08;;;17.70;99.90;;;;;;5030300;28;20263;-75
2023/08/02 02:40:09;;;;;;;4.45;2.28;;;17.70;99.90;;;;;;5021302;28;20596;-75
2023/08/02 02:42:35;;;;;;;6.80;2.50;;;17.70;99.90;;;;;;5027844;28;20291;-76
2023/08/02 02:45:00;;;;;;;4.22;2.55;;;17.70;99.90;;;;;;5026631;28;20212;-75
2023/08/02 02:47:26;;;;;;;5.03;2.00;;;17.70;99.90;;;;;;5023660;28;20231;-75
2023/08/02 02:49:52;;;;;;;6.68;2.08;;;17.70;99.90;;;;;;5024076;28;20184;-75
2023/08/02 02:52:17;;;;;;;3.00;1.80;;;17.60;99.90;;;;;;5022953;28;20720;-75
2023/08/02 02:54:43;;;;;;;6.35;2.13;;;17.60;99.90;;;;;;5023839;28;20212;-75
2023/08/02 02:57:09;;;;;;;4.43;2.20;;;17.60;99.90;;;;;;5025723;28;20217;-74
2023/08/02 02:59:35;;;;;;;5.00;2.15;;;17.50;99.90;;;;;;5022164;28;20204;-74
2023/08/02 03:02:01;;;;;;;3.33;2.10;;;17.60;99.90;;;;;;5022808;28;20208;-75
2023/08/02 03:04:27;;;;;;;3.95;1.83;;;17.50;99.90;;;;;;5026377;28;20203;-75
2023/08/02 03:06:53;;;;;;;4.82;2.22;;;17.50;99.90;;;;;;5017018;28;20220;-75
2023/08/02 03:09:19;;;;;;;3.17;2.38;;;17.50;99.90;;;;;;5023524;28;20208;-75
2023/08/02 03:11:46;;;;;;;2.47;1.90;;;17.50;99.90;;;;;;5018049;28;20212;-74
2023/08/02 03:14:12;;;;;;;6.22;2.20;;;17.40;99.90;;;;;;5023763;28;20590;-75
2023/08/02 03:16:37;;;;;;;4.47;2.30;;;17.40;99.90;;;;;;5025273;28;20255;-75
2023/08/02 03:19:04;;;;;;;4.72;2.17;;;17.40;99.90;;;;;;5024083;28;20295;-76
2023/08/02 03:21:30;;;;;;;5.22;2.00;;;17.40;99.90;;;;;;5027791;28;20202;-74
2023/08/02 03:23:55;;;;;;;6.80;2.45;;;17.40;99.90;;;;;;5025596;28;20588;-74
2023/08/02 03:26:21;;;;;;;5.20;2.17;;;17.30;99.90;;;;;;5026114;28;20201;-77
2023/08/02 03:28:47;;;;;;;3.60;1.85;;;17.30;99.90;;;;;;5020535;28;20168;-74
2023/08/02 03:31:13;;;;;;;4.18;2.20;;;17.30;99.90;;;;;;5019409;28;20223;-74
2023/08/02 03:33:38;;;;;;;4.85;2.03;;;17.30;99.90;;;;;;5017764;28;20278;-75
2023/08/02 03:36:04;;;;;;;6.10;2.35;;;17.30;99.90;;;;;;5019526;28;20244;-74
2023/08/02 03:38:30;;;;;;;7.25;3.25;;;17.10;99.90;;;;;;5018930;28;20255;-75
2023/08/02 03:40:56;;;;;;;5.10;2.47;;;17.10;99.90;;;;;;5016404;28;20177;-75
2023/08/02 03:43:21;;;;;;;7.18;2.45;;;17.00;99.90;;;;;;5025628;28;20204;-74
2023/08/02 03:45:48;;;;;;;4.65;2.42;;;17.10;99.90;;;;;;5019956;28;20247;-75
2023/08/02 03:48:14;;;;;;;4.85;2.67;;;17.10;99.90;;;;;;5019792;28;20646;-75
2023/08/02 03:50:40;;;;;;;3.90;2.45;;;17.00;99.90;;;;;;5020310;28;20342;-75
2023/08/02 03:53:05;;;;;;;6.75;2.55;;;17.10;99.90;;;;;;5027123;28;20282;-74
2023/08/02 03:55:31;;;;;;;5.40;2.80;;;17.10;99.90;;;;;;5027623;28;20732;-75
2023/08/02 03:57:57;;;;;;;7.50;2.83;;;17.20;99.90;;;;;;5024824;28;20201;-75
2023/08/02 04:00:23;;;;;;;3.22;2.30;;;17.30;99.90;;;;;;5042607;28;20238;-74
2023/08/02 04:02:49;;;;;;;6.15;3.17;;;17.40;99.90;;;;;;5025211;28;20208;-77
2023/08/02 04:05:14;;;;;;;8.43;3.00;;;17.40;99.90;;;;;;5024046;28;20220;-75
2023/08/02 04:07:40;;;;;;;5.65;2.95;;;18.10;99.90;;;;;;5026330;28;20204;-74
2023/08/02 04:10:06;;;;;;;3.58;2.50;;;18.00;99.90;;;;;;5023284;28;20657;-75
2023/08/02 04:12:32;;;;;;;5.03;2.45;;;18.10;99.90;;;;;;5019900;28;20398;-74
2023/08/02 04:14:58;;;;;;;6.55;3.30;;;18.00;99.90;;;;;;5016832;28;20316;-74
2023/08/02 04:17:25;;;;;;;6.32;2.58;;;17.80;99.90;;;;;;5018733;28;20193;-78
2023/08/02 04:19:51;;;;;;;3.67;2.47;;;17.80;99.90;;;;;;5016095;28;20176;-75
2023/08/02 04:22:16;;;;;;;5.72;2.83;;;17.60;99.90;;;;;;5034221;28;20526;-75
2023/08/02 04:24:42;;;;;;;5.65;2.92;;;17.60;99.90;;;;;;5017556;28;20204;-76
2023/08/02 04:27:08;;;;;;;3.30;2.75;;;17.60;99.90;;;;;;5032848;28;20577;-72
2023/08/02 04:29:33;;;;;;;4.65;2.78;;;17.60;99.90;;;;;;5023770;28;20201;-74
2023/08/02 04:31:59;;;;;;;5.05;2.40;;;17.40;99.90;;;;;;5022380;28;20227;-72
2023/08/02 04:34:24;;;;;;;3.95;2.78;;;17.50;99.90;;;;;;5026497;28;20717;-76
2023/08/02 04:36:51;;;;;;;6.50;2.53;;;17.60;99.90;;;;;;5025969;28;20287;-76
2023/08/02 04:39:17;;;;;;;7.35;3.53;;;17.60;99.90;;;;;;5014429;28;20215;-75
2023/08/02 04:41:43;;;;;;;5.00;2.63;;;17.50;99.90;;;;;;5024388;28;20200;-76
2023/08/02 04:44:08;;;;;;;7.15;3.03;;;17.50;99.90;;;;;;5021812;28;20914;-74
2023/08/02 04:46:34;;;;;;;3.60;2.60;;;17.40;99.90;;;;;;5027585;28;20195;-74
2023/08/02 04:48:59;;;;;;;4.25;2.92;;;17.40;99.90;;;;;;5021542;28;20211;-75
2023/08/02 04:51:25;;;;;;;4.90;3.50;;;17.50;99.90;;;;;;5024698;28;20269;-75
2023/08/02 04:53:51;;;;;;;5.40;3.25;;;17.50;99.90;;;;;;5023239;28;20200;-76
2023/08/02 04:56:17;;;;;;;5.85;3.20;;;17.50;99.90;;;;;;5021032;28;20208;-74
2023/08/02 04:58:43;;;;;;;8.73;3.42;;;17.60;99.90;;;;;;5023289;28;20172;-75
2023/08/02 05:01:09;;;;;;;4.80;2.72;;;17.70;99.90;;;;;;5020788;28;20181;-74
2023/08/02 05:03:35;;;;;;;6.15;3.28;;;17.70;99.90;;;;;;5019510;28;20201;-74
2023/08/02 05:06:02;;;;;;;4.88;2.70;;;17.70;99.90;;;;;;5022996;28;20686;-74
2023/08/02 05:08:34;;;;;;;5.93;3.65;;;17.70;99.90;;;;;;5023811;28;20239;-76
2023/08/02 05:11:00;;;;;;;6.60;4.80;;;17.60;99.90;;;;;;5030943;28;20296;-75
2023/08/02 05:13:26;;;;;;;4.50;2.90;;;17.70;99.90;;;;;;5020333;28;20256;-74
2023/08/02 05:15:54;;;;;;;5.07;2.88;;;17.60;99.90;;;;;;5033131;28;20262;-73
2023/08/02 05:18:20;;;;;;;5.22;3.15;;;17.70;99.90;;;;;;5028787;28;20674;-74
2023/08/02 05:20:46;;;;;;;4.72;3.15;;;17.70;99.90;;;;;;5034066;28;20201;-75
2023/08/02 05:23:11;;;;;;;4.97;3.35;;;17.70;99.90;;;;;;5020924;28;20648;-75
2023/08/02 05:25:39;;;;;;;3.80;2.78;;;17.80;99.90;;;;;;5025476;28;20277;-74
2023/08/02 05:28:04;;;;;;;5.00;2.88;;;17.80;99.90;;;;;;5019640;28;20498;-73
2023/08/02 05:30:31;;;;;;;3.17;2.70;;;17.80;99.90;;;;;;5026124;28;20311;-74
2023/08/02 05:32:57;;;;;;;6.85;3.67;;;17.90;99.90;;;;;;5020345;28;20239;-74
2023/08/02 05:35:25;;;;;;;4.22;2.80;;;18.00;99.90;;;;;;5021634;28;20228;-74
2023/08/02 05:37:51;;;;;;;3.95;2.75;;;18.00;99.90;;;;;;5020635;28;20172;-74
2023/08/02 05:40:17;;;;;;;7.18;2.95;;;18.10;99.90;;;;;;5027758;28;20271;-74
2023/08/02 05:42:43;;;;;;;5.97;3.15;;;18.10;99.90;;;;;;5024035;28;20204;-74
2023/08/02 05:45:10;;;;;;;5.28;2.70;;;18.20;99.90;;;;;;5025167;28;20565;-75
2023/08/02 05:47:36;;;;;;;6.55;2.67;;;18.30;99.90;;;;;;5026617;28;20204;-74
2023/08/02 05:50:02;;;;;;;5.82;2.75;;;18.50;99.90;;;;;;5026228;28;20200;-74
2023/08/02 05:52:27;;;;;;;4.32;2.95;;;18.80;99.90;;;;;;5021331;28;20184;-76
2023/08/02 05:54:53;;;;;;;7.15;2.47;;;19.10;99.90;;;;;;5022400;28;20255;-74
2023/08/02 05:57:19;;;;;;;4.18;2.53;;;18.80;99.90;;;;;;5017113;28;20217;-75
2023/08/02 05:59:44;;;;;;;4.47;2.42;;;18.80;99.90;;;;;;5026463;28;20198;-76
2023/08/02 06:02:10;;;;;;;5.25;3.58;;;18.80;99.90;;;;;;5017664;28;20204;-75
2023/08/02 06:04:42;;;;;;;4.90;2.63;;;18.90;99.90;;;;;;5021989;28;20197;-75
2023/08/02 06:07:07;;;;;;;4.90;2.60;;;19.30;99.90;;;;;;5018005;28;20205;-74
2023/08/02 06:09:33;;;;;;;5.57;2.03;;;19.30;99.90;;;;;;5020949;28;20215;-75
2023/08/02 06:11:59;;;;;;;6.18;2.33;;;19.40;99.90;;;;;;5020434;28;20200;-75
2023/08/02 06:14:25;;;;;;;5.10;2.67;;;19.70;99.90;;;;;;5020001;28;20252;-75
2023/08/02 06:16:51;;;;;;;3.90;2.42;;;20.10;99.90;;;;;;5035514;28;20215;-75
2023/08/02 06:19:16;;;;;;;5.70;2.13;;;20.50;99.90;;;;;;5019045;28;20613;-74
2023/08/02 06:21:42;;;;;;;3.78;1.80;;;20.80;99.90;;;;;;5025537;28;20200;-75
2023/08/02 06:24:07;;;;;;;5.55;3.50;;;21.40;99.90;;;;;;5020925;28;20732;-74
2023/08/02 06:26:33;;;;;;;2.92;1.88;;;23.20;99.90;;;;;;5036518;28;20283;-75
2023/08/02 06:29:00;;;;;;;5.20;2.80;;;23.70;99.90;;;;;;5024749;28;20281;-75
2023/08/02 06:31:25;;;;;;;3.40;2.90;;;24.70;99.90;;;;;;5020369;28;20663;-75
2023/08/02 06:33:51;;;;;;;5.05;2.10;;;26.20;99.90;;;;;;5020774;28;20291;-75
2023/08/02 06:36:16;;;;;;;4.90;1.60;;;27.80;99.90;;;;;;5033239;28;20228;-76
2023/08/02 06:38:43;;;;;;;6.07;1.83;;;27.60;99.90;;;;;;5035779;28;20204;-76
2023/08/02 06:41:10;;;;;;;3.53;1.90;;;27.40;99.90;;;;;;5020089;28;20228;-75
2023/08/02 06:43:35;;;;;;;3.25;2.10;;;28.60;99.90;;;;;;5020966;28;20169;-75
2023/08/02 06:46:01;;;;;;;3.72;1.80;;;28.60;99.90;;;;;;5020526;28;20238;-74
2023/08/02 06:48:28;;;;;;;3.75;1.98;;;29.80;99.90;;;;;;5024206;28;20219;-74
2023/08/02 06:50:54;;;;;;;4.22;1.77;;;30.70;99.90;;;;;;5020617;28;20200;-72
2023/08/02 06:53:19;;;;;;;3.10;1.73;;;31.70;99.90;;;;;;5018653;28;20533;-75
2023/08/02 06:55:45;;;;;;;4.88;2.10;;;32.20;99.90;;;;;;5023233;28;20295;-74
2023/08/02 06:58:11;;;;;;;4.05;1.80;;;32.00;99.90;;;;;;5032486;28;20168;-74
2023/08/02 07:00:37;;;;;;;2.88;1.90;;;31.50;99.90;;;;;;5020601;28;20247;-75
2023/08/02 07:03:03;;;;;;;3.80;1.95;;;31.10;99.90;;;;;;5032732;28;20208;-74
2023/08/02 07:05:32;;;;;;;3.28;2.05;;;30.10;99.90;;;;;;5029491;28;20271;-74
2023/08/02 07:08:00;;;;;;;3.03;1.73;;;30.10;99.90;;;;;;5035138;28;20176;-74
2023/08/02 07:10:29;;;;;;;3.17;1.70;;;31.30;99.90;;;;;;5021001;28;20204;-76
2023/08/02 07:12:56;;;;;;;4.22;1.70;;;32.10;99.90;;;;;;5020584;28;20207;-75
2023/08/02 07:15:21;;;;;;;3.25;2.28;;;32.10;99.90;;;;;;5018893;28;20222;-75
2023/08/02 07:17:47;;;;;;;2.05;1.85;;;33.60;98.90;;;;;;5021900;28;20199;-75
2023/08/02 07:20:14;;;;;;;5.90;2.10;;;33.40;97.10;;;;;;5019604;28;20317;-74
2023/08/02 07:22:42;;;;;;;3.47;2.05;;;33.00;96.30;;;;;;5020630;28;20633;-75
2023/08/02 07:25:08;;;;;;;3.35;1.65;;;32.80;96.90;;;;;;5018973;28;20188;-75
2023/08/02 07:27:34;;;;;;;3.47;1.90;;;33.70;95.70;;;;;;5019843;28;20204;-73
2023/08/02 07:30:01;;;;;;;3.65;2.65;;;34.60;94.20;;;;;;5018883;28;20207;-75
2023/08/02 07:32:26;;;;;;;2.92;2.00;;;34.60;93.50;;;;;;5020908;28;20586;-73
2023/08/02 07:34:52;;;;;;;3.67;1.80;;;33.60;93.30;;;;;;5036832;28;20204;-73
2023/08/02 07:37:18;;;;;;;3.30;2.60;;;33.50;93.80;;;;;;5019815;28;20175;-77
2023/08/02 07:39:44;;;;;;;3.25;1.98;;;32.80;93.70;;;;;;5017879;28;20208;-76
2023/08/02 07:42:10;;;;;;;4.32;1.80;;;30.90;95.50;;;;;;5022892;28;20595;-76
2023/08/02 07:44:37;;;;;;;4.20;2.20;;;31.70;96.30;;;;;;5022757;28;20222;-75
2023/08/02 07:47:04;;;;;;;4.28;2.13;;;31.70;96.10;;;;;;5021699;28;20712;-76
2023/08/02 07:49:31;;;;;;;3.97;1.90;;;32.70;95.00;;;;;;5018978;28;20193;-75
2023/08/02 07:51:57;;;;;;;4.03;1.95;;;32.90;93.80;;;;;;5020234;28;20214;-75
2023/08/02 07:54:22;;;;;;;2.22;1.80;;;32.00;94.40;;;;;;5019398;28;20208;-75
2023/08/02 07:56:48;;;;;;;1.80;1.30;;;32.70;94.20;;;;;;5020701;28;20990;-75
2023/08/02 07:59:14;;;;;;;3.05;1.63;;;32.70;93.00;;;;;;5017320;28;20286;-74
2023/08/02 08:01:43;;;;;;;4.60;1.63;;;31.80;93.70;;;;;;5019490;28;20227;-75
2023/08/02 08:04:09;;;;;;;4.22;1.85;;;32.70;93.80;;;;;;5020499;28;20267;-74
2023/08/02 08:06:34;;;;;;;4.13;1.63;;;32.40;93.10;;;;;;5019734;28;20231;-75
2023/08/02 08:09:00;;;;;;;4.97;1.70;;;32.50;93.30;;;;;;5018711;28;20234;-75
2023/08/02 08:11:27;;;;;;;3.47;1.80;;;32.00;94.00;;;;;;5024538;28;20214;-74
2023/08/02 08:13:53;;;;;;;3.70;3.05;;;32.80;93.60;;;;;;5020840;28;20253;-75
2023/08/02 08:16:19;;;;;;;3.30;1.65;;;30.60;94.20;;;;;;5028172;28;20658;-75
2023/08/02 08:18:45;;;;;;;3.15;1.52;;;30.60;95.10;;;;;;5018898;28;20601;-74
2023/08/02 08:21:10;;;;;;;2.90;1.60;;;31.20;94.80;;;;;;5027340;28;20211;-74
2023/08/02 08:23:36;;;;;;;4.63;1.83;;;32.10;93.20;;;;;;5037945;28;20208;-76
2023/08/02 08:26:02;;;;;;;3.45;1.73;;;31.70;93.50;;;;;;5024065;28;20216;-74
2023/08/02 08:28:28;;;;;;;4.47;2.10;;;32.20;93.80;;;;;;5026054;28;20172;-75
2023/08/02 08:31:03;;;;;;;3.95;1.85;;;32.70;93.00;;;;;;5027753;28;20204;-75
2023/08/02 08:33:30;;;;;;;3.90;1.58;;;32.40;91.90;;;;;;5024051;28;20291;-75
2023/08/02 08:35:56;;;;;;;2.28;1.27;;;31.80;91.80;;;;;;5028136;28;20306;-74
2023/08/02 08:38:21;;;;;;;1.50;1.00;;;31.80;92.10;;;;;;5023619;28;20298;-72
2023/08/02 08:40:54;;;;;;;3.10;1.30;;;31.70;92.00;;;;;;5025452;28;20571;-75
2023/08/02 08:43:24;;;;;;;2.78;1.30;;;31.10;92.40;;;;;;5042964;28;20180;-75
2023/08/02 08:45:51;;;;;;;3.20;1.60;;;29.80;93.20;;;;;;5026878;28;20204;-74
2023/08/02 08:48:17;;;;;;;2.75;1.20;;;30.20;94.10;;;;;;5036612;28;20204;-75
2023/08/02 08:50:46;;;;;;;2.95;1.40;;;30.40;94.30;;;;;;5022402;28;20215;-74
2023/08/02 08:53:20;;;;;;;4.13;1.30;;;31.00;93.60;;;;;;5025892;28;20298;-74
2023/08/02 08:55:49;;;;;;;5.13;1.42;;;31.70;91.90;;;;;;5025643;28;20203;-75
2023/08/02 08:58:16;;;;;;;3.50;1.48;;;31.30;91.60;;;;;;5028978;28;20176;-74
2023/08/02 09:00:44;;;;;;;4.80;1.20;;;30.60;91.90;;;;;;5027449;28;20266;-75
2023/08/02 09:03:12;;;;;;;3.00;1.33;;;29.60;93.70;;;;;;5037019;28;20243;-74
2023/08/02 09:05:40;;;;;;;2.22;1.40;;;29.70;93.90;;;;;;5026034;28;20209;-74
2023/08/02 09:08:06;;;;;;;1.88;1.05;;;30.60;92.20;;;;;;5038052;28;20240;-74
2023/08/02 09:10:33;;;;;;;3.50;1.27;;;31.00;92.40;;;;;;5022810;28;20168;-75
2023/08/02 09:12:58;;;;;;;5.18;1.48;;;31.80;91.30;;;;;;5026192;28;20196;-76
2023/08/02 09:15:24;;;;;;;3.20;1.20;;;32.50;90.40;;;;;;5026777;28;20362;-74
2023/08/02 09:17:51;;;;;;;3.42;2.20;;;32.20;90.00;;;;;;5024328;28;20204;-74
2023/08/02 09:20:25;;;;;;;3.40;1.30;;;32.50;88.50;;;;;;5025945;28;20211;-75
2023/08/02 09:22:51;;;;;;;4.70;1.55;;;32.30;89.00;;;;;;5025396;28;20173;-74
2023/08/02 09:25:24;;;;;;;3.10;1.77;;;31.00;90.50;;;;;;5026233;28;20222;-74
2023/08/02 09:27:50;;;;;;;3.08;1.20;;;30.70;90.50;;;;;;5018986;28;20810;-75
2023/08/02 09:30:27;;;;;;;3.78;2.50;;;29.10;92.40;;;;;;5029695;28;20610;-74
2023/08/02 09:33:02;;;;;;;2.47;1.55;;;27.90;94.30;;;;;;5037607;28;20200;-74
2023/08/02 09:35:53;;;;;;;4.07;1.58;;;28.20;94.90;;;;;;5022459;28;20229;-74
2023/08/02 09:38:19;;;;;;;2.58;1.42;;;27.60;95.30;;;;;;5024390;28;20208;-74
2023/08/02 09:40:48;;;;;;;2.63;1.77;;;27.50;96.20;;;;;;5022803;28;20204;-74
2023/08/02 09:43:17;;;;;;;3.08;1.58;;;27.60;96.60;;;;;;5024987;28;20168;-74
2023/08/02 09:45:43;;;;;;;4.00;1.45;;;28.10;97.30;;;;;;5019583;28;20209;-74
2023/08/02 09:48:09;;;;;;;2.55;1.52;;;27.90;96.80;;;;;;5023317;28;20203;-75
2023/08/02 09:50:51;;;;;;;2.53;1.70;;;27.40;97.60;;;;;;5025428;28;20263;-74
2023/08/02 09:53:17;;;;;;;4.07;1.80;;;27.30;97.90;;;;;;5034402;28;20662;-75
2023/08/02 09:55:47;;;;;;;2.35;1.55;;;26.80;98.80;;;;;;5021277;28;20241;-74
2023/08/02 09:58:13;;;;;;;4.93;1.75;;;27.00;99.20;;;;;;5022333;28;20173;-74
2023/08/02 10:00:39;;;;;;;8.35;3.78;;;26.90;99.30;;;;;;5018684;28;20196;-74
2023/08/02 10:03:07;;;;;;;2.72;1.70;;;27.60;99.50;;;;;;5019224;28;20244;-74
2023/08/02 10:05:35;;;;;;;3.92;1.70;;;27.80;98.90;;;;;;5024059;28;20709;-74
2023/08/02 10:08:01;;;;;;;2.97;1.58;;;27.80;99.00;;;;;;5022445;28;20242;-75
2023/08/02 10:10:30;;;;;;;4.55;1.92;;;26.90;99.60;;;;;;5024449;28;20200;-74
2023/08/02 10:13:08;;;;;;;2.83;1.83;;;27.50;99.90;;;;;;5019458;28;20204;-74
2023/08/02 10:15:40;;;;;;;3.83;1.70;;;27.00;99.80;;;;;;5021463;28;20212;-75
2023/08/02 10:18:07;;;;;;;5.68;3.17;;;27.30;99.90;;;;;;5021996;28;20554;-73
2023/08/02 10:20:34;;;;;;;2.20;1.42;;;27.00;99.90;;;;;;5019369;28;20213;-74
2023/08/02 10:23:04;;;;;;;6.55;1.60;;;26.00;99.90;;;;;;5037288;28;20226;-74
2023/08/02 10:25:32;;;;;;;4.97;1.73;;;26.60;99.90;;;;;;5024004;28;20212;-74
2023/08/02 10:27:59;;;;;;;2.28;1.50;;;26.40;99.90;;;;;;5022171;28;20693;-74
2023/08/02 10:30:26;;;;;;;2.15;1.30;;;26.90;99.90;;;;;;5019998;28;20258;-74
2023/08/02 10:33:18;;;;;;;3.33;1.38;;;27.30;99.90;;;;;;5019632;28;20204;-74
2023/08/02 10:35:58;;;;;;;2.97;1.20;;;26.60;99.90;;;;;;5017002;28;20697;-74
2023/08/02 10:38:39;;;;;;;2.85;1.35;;;26.30;99.90;;;;;;5027687;28;20215;-74
2023/08/02 10:41:27;;;;;;;4.88;2.33;;;26.20;99.90;;;;;;5025091;28;20215;-74
2023/08/02 10:43:52;;;;;;;2.10;1.20;;;26.10;99.90;;;;;;5022889;28;20185;-75
2023/08/02 10:46:24;;;;;;;2.92;2.03;;;26.10;99.90;;;;;;5026557;28;20184;-74
2023/08/02 10:48:50;;;;;;;3.38;1.80;;;25.80;99.90;;;;;;5023248;28;20539;-75
2023/08/02 10:51:30;;;;;;;2.55;1.42;;;25.90;99.90;;;;;;5027889;28;20238;-74
2023/08/02 10:54:25;;;;;;;2.03;1.38;;;26.00;99.90;;;;;;5019388;28;20205;-73
2023/08/02 10:56:51;;;;;;;2.42;1.33;;;25.90;99.90;;;;;;5020119;28;20213;-73
2023/08/02 10:59:38;;;;;;;3.03;1.45;;;25.90;99.90;;;;;;5022494;28;20204;-74
2023/08/02 11:02:12;;;;;;;1.30;1.20;;;26.10;99.90;;;;;;5012079;28;20689;-73
2023/08/02 11:04:44;;;;;;;2.65;1.65;;;26.20;99.90;;;;;;5022017;28;20208;-74
2023/08/02 11:07:16;;;;;;;3.08;1.30;;;25.40;99.90;;;;;;5023120;28;20702;-73
2023/08/02 11:09:42;;;;;;;3.15;1.85;;;25.00;99.90;;;;;;5017802;28;20212;-73
2023/08/02 11:12:15;;;;;;;2.05;1.33;;;24.70;99.90;;;;;;5019842;28;20199;-72
2023/08/02 11:14:45;;;;;;;3.00;2.25;;;25.10;99.90;;;;;;5031563;28;20204;-73
2023/08/02 11:17:15;;;;;;;4.63;2.03;;;24.80;99.90;;;;;;5022607;28;20235;-73
2023/08/02 11:19:48;;;;;;;2.15;1.50;;;24.50;99.90;;;;;;5024134;28;20184;-74
2023/08/02 11:22:13;;;;;;;3.53;1.98;;;24.20;99.90;;;;;;5024125;28;20176;-75
2023/08/02 11:24:44;;;;;;;3.90;1.80;;;24.20;99.90;;;;;;5018994;28;20720;-74
2023/08/02 11:27:21;;;;;;;5.75;2.00;;;24.10;99.90;;;;;;5019174;28;20609;-73
2023/08/02 11:30:07;;;;;;;2.67;2.10;;;24.20;99.90;;;;;;5021332;28;20745;-74
2023/08/02 11:32:34;;;;;;;2.90;2.30;;;24.50;99.90;;;;;;5019728;28;20716;-73
2023/08/02 11:35:00;;;;;;;4.68;2.30;;;24.60;99.90;;;;;;5020130;28;20221;-75
2023/08/02 11:37:27;;;;;;;3.60;2.22;;;24.70;99.90;;;;;;5024060;28;20238;-75
2023/08/02 11:39:58;;;;;;;5.80;2.38;;;24.50;99.90;;;;;;5020022;28;20244;-73
2023/08/02 11:42:25;;;;;;;2.35;1.90;;;24.30;99.90;;;;;;5021668;28;20204;-73
2023/08/02 11:44:51;;;;;;;3.22;2.17;;;24.10;99.90;;;;;;5021175;28;20213;-72
2023/08/02 11:47:17;;;;;;;6.30;3.33;;;24.10;99.90;;;;;;5019856;28;20204;-73
2023/08/02 11:49:56;;;;;;;6.95;3.35;;;24.30;99.90;;;;;;5022561;28;20730;-73
2023/08/02 11:52:25;;;;;;;3.60;2.28;;;24.60;99.90;;;;;;5027247;28;20173;-73
2023/08/02 11:54:52;;;;;;;3.72;2.25;;;24.40;99.90;;;;;;5025688;28;20630;-73
2023/08/02 11:57:18;;;;;;;5.75;2.55;;;24.30;99.90;;;;;;5022454;28;20204;-73
2023/08/02 11:59:45;;;;;;;3.42;2.10;;;24.40;99.90;;;;;;5031693;28;20295;-73
2023/08/02 12:02:29;;;;;;;3.47;2.10;;;24.50;99.90;;;;;;5022006;28;20209;-75
2023/08/02 12:04:57;;;;;;;2.83;2.00;;;24.00;99.90;;;;;;5022833;28;20228;-74
2023/08/02 12:07:27;;;;;;;4.90;2.30;;;24.40;99.90;;;;;;5035115;28;20276;-73
2023/08/02 12:09:53;;;;;;;5.85;2.40;;;24.40;99.90;;;;;;5020254;28;20312;-73
2023/08/02 12:12:19;;;;;;;3.33;2.42;;;24.40;99.90;;;;;;5020663;28;20299;-74
2023/08/02 12:14:45;;;;;;;6.97;2.55;;;24.00;99.90;;;;;;5016838;28;20311;-73
2023/08/02 12:17:21;;;;;;;4.60;1.95;;;24.10;99.90;;;;;;5020309;28;20284;-74
2023/08/02 12:19:47;;;;;;;4.57;2.10;;;24.30;99.90;;;;;;5017528;28;20176;-73
2023/08/02 12:22:14;;;;;;;4.28;3.13;;;24.50;99.90;;;;;;5020975;28;20184;-73
2023/08/02 12:24:40;;;;;;;5.47;3.63;;;24.70;99.90;;;;;;5016694;28;20222;-74
2023/08/02 12:27:15;;;;;;;3.90;2.60;;;24.70;99.90;;;;;;5017318;28;20209;-73
2023/08/02 12:29:44;;;;;;;5.05;2.55;;;24.70;99.90;;;;;;5019986;28;20207;-74
2023/08/02 12:32:21;;;;;;;4.53;2.20;;;24.50;99.90;;;;;;5013644;28;20205;-74
2023/08/02 12:34:47;;;;;;;3.13;1.92;;;24.30;99.90;;;;;;5019021;28;20674;-73
2023/08/02 12:37:15;;;;;;;3.95;2.42;;;24.30;99.90;;;;;;5023895;28;20182;-73
2023/08/02 12:39:41;;;;;;;4.05;2.95;;;24.40;99.90;;;;;;5032602;28;20576;-74
2023/08/02 12:42:07;;;;;;;3.10;2.25;;;24.60;99.90;;;;;;5017215;28;20201;-72
2023/08/02 12:44:32;;;;;;;2.92;2.10;;;24.50;99.90;;;;;;5021211;28;20713;-74
2023/08/02 12:46:58;;;;;;;5.40;2.58;;;24.50;99.90;;;;;;5016650;28;20200;-73
2023/08/02 12:49:24;;;;;;;4.53;2.35;;;24.20;99.90;;;;;;5020872;28;20279;-73